Acme, North Carolina
Current Conditions -  °F | °C
As of 7:53 PM on Monday 22 Dec 2014 (Local Time) from KILM Reporting Station
Haze Haze  
Wind Chill: 41°   Ceiling: 400
Heat Index: 45°   Visibility: 6mi
Dew Point: 44°   Wind: 7mph
Humidity: 97%   Direction: 340°NNW
Pressure: 30.04"   Gusts: NA
Location:  34.3494°N, 78.2681°W
Report Text: KILM 230053Z 34006KT 6SM BR OVC004 07/07 A3004 RMK AO2 SLP171 T00720067
Loading
Personal Weather Stations






























Interactive Weather Map New forecast layout! Learn more

10-Day Weather Forecast

Advertisements
Track Severe Weather on mobile